sensor_id;sensor_type;location;lat;lon;timestamp;P1;durP1;ratioP1;P2;durP2;ratioP2
14001;SDS011;7076;51.280;12.584;2023-02-15T00:04:21;18.50;;;12.40;;
14001;SDS011;7076;51.280;12.584;2023-02-15T00:09:25;22.20;;;13.60;;
14001;SDS011;7076;51.280;12.584;2023-02-15T00:14:28;21.20;;;12.30;;
14001;SDS011;7076;51.280;12.584;2023-02-15T00:19:32;23.17;;;13.27;;
14001;SDS011;7076;51.280;12.584;2023-02-15T00:24:35;18.77;;;11.77;;
14001;SDS011;7076;51.280;12.584;2023-02-15T00:29:37;17.87;;;12.03;;
14001;SDS011;7076;51.280;12.584;2023-02-15T00:34:42;19.80;;;12.33;;
14001;SDS011;7076;51.280;12.584;2023-02-15T00:39:45;20.63;;;12.37;;
14001;SDS011;7076;51.280;12.584;2023-02-15T00:44:48;18.70;;;11.83;;
14001;SDS011;7076;51.280;12.584;2023-02-15T00:49:52;20.57;;;12.63;;
14001;SDS011;7076;51.280;12.584;2023-02-15T00:54:54;18.80;;;11.73;;
14001;SDS011;7076;51.280;12.584;2023-02-15T00:59:57;19.43;;;12.03;;
14001;SDS011;7076;51.280;12.584;2023-02-15T01:05:01;19.20;;;11.43;;
14001;SDS011;7076;51.280;12.584;2023-02-15T01:10:05;18.00;;;10.97;;
14001;SDS011;7076;51.280;12.584;2023-02-15T01:15:08;17.10;;;11.30;;
14001;SDS011;7076;51.280;12.584;2023-02-15T01:20:13;19.20;;;11.70;;
14001;SDS011;7076;51.280;12.584;2023-02-15T01:25:17;18.30;;;10.57;;
14001;SDS011;7076;51.280;12.584;2023-02-15T01:30:20;14.30;;;9.37;;
14001;SDS011;7076;51.280;12.584;2023-02-15T01:35:24;17.07;;;9.80;;
14001;SDS011;7076;51.280;12.584;2023-02-15T01:40:28;19.93;;;10.63;;
14001;SDS011;7076;51.280;12.584;2023-02-15T01:45:31;15.87;;;9.87;;
14001;SDS011;7076;51.280;12.584;2023-02-15T01:50:36;14.40;;;9.90;;
14001;SDS011;7076;51.280;12.584;2023-02-15T01:55:40;19.60;;;10.20;;
14001;SDS011;7076;51.280;12.584;2023-02-15T02:00:48;14.13;;;8.97;;
14001;SDS011;7076;51.280;12.584;2023-02-15T02:05:53;16.97;;;9.80;;
14001;SDS011;7076;51.280;12.584;2023-02-15T02:10:55;14.87;;;9.23;;
14001;SDS011;7076;51.280;12.584;2023-02-15T02:16:00;12.63;;;8.63;;
14001;SDS011;7076;51.280;12.584;2023-02-15T02:21:14;15.83;;;9.10;;
14001;SDS011;7076;51.280;12.584;2023-02-15T02:26:54;14.07;;;9.40;;
14001;SDS011;7076;51.280;12.584;2023-02-15T02:32:17;13.20;;;9.13;;
14001;SDS011;7076;51.280;12.584;2023-02-15T02:37:43;12.73;;;9.13;;
14001;SDS011;7076;51.280;12.584;2023-02-15T02:42:49;13.67;;;8.47;;
14001;SDS011;7076;51.280;12.584;2023-02-15T02:47:59;14.90;;;8.23;;
14001;SDS011;7076;51.280;12.584;2023-02-15T02:53:04;16.17;;;8.83;;
14001;SDS011;7076;51.280;12.584;2023-02-15T02:58:08;12.57;;;8.73;;
14001;SDS011;7076;51.280;12.584;2023-02-15T03:03:13;14.13;;;9.17;;
14001;SDS011;7076;51.280;12.584;2023-02-15T03:08:20;13.97;;;9.03;;
14001;SDS011;7076;51.280;12.584;2023-02-15T03:13:27;12.63;;;8.40;;
14001;SDS011;7076;51.280;12.584;2023-02-15T03:18:30;12.10;;;8.33;;
14001;SDS011;7076;51.280;12.584;2023-02-15T03:23:37;11.87;;;8.47;;
14001;SDS011;7076;51.280;12.584;2023-02-15T03:28:42;11.77;;;7.93;;
14001;SDS011;7076;51.280;12.584;2023-02-15T03:33:48;13.13;;;8.63;;
14001;SDS011;7076;51.280;12.584;2023-02-15T03:38:56;13.63;;;8.70;;
14001;SDS011;7076;51.280;12.584;2023-02-15T03:44:03;11.70;;;8.10;;
14001;SDS011;7076;51.280;12.584;2023-02-15T03:49:09;11.17;;;8.17;;
14001;SDS011;7076;51.280;12.584;2023-02-15T03:54:15;12.43;;;8.37;;
14001;SDS011;7076;51.280;12.584;2023-02-15T03:59:35;11.53;;;7.47;;
14001;SDS011;7076;51.280;12.584;2023-02-15T04:04:55;10.27;;;7.10;;
14001;SDS011;7076;51.280;12.584;2023-02-15T04:09:59;12.40;;;8.20;;
14001;SDS011;7076;51.280;12.584;2023-02-15T04:15:19;11.00;;;7.83;;
14001;SDS011;7076;51.280;12.584;2023-02-15T04:20:42;9.87;;;7.30;;
14001;SDS011;7076;51.280;12.584;2023-02-15T04:26:05;10.33;;;7.30;;
14001;SDS011;7076;51.280;12.584;2023-02-15T04:31:08;10.90;;;7.23;;
14001;SDS011;7076;51.280;12.584;2023-02-15T04:36:11;11.80;;;7.60;;
14001;SDS011;7076;51.280;12.584;2023-02-15T04:41:15;11.20;;;6.97;;
14001;SDS011;7076;51.280;12.584;2023-02-15T04:46:18;12.23;;;7.03;;
14001;SDS011;7076;51.280;12.584;2023-02-15T04:51:20;9.70;;;6.57;;
14001;SDS011;7076;51.280;12.584;2023-02-15T04:56:24;11.70;;;6.97;;
14001;SDS011;7076;51.280;12.584;2023-02-15T05:01:27;9.37;;;6.27;;
14001;SDS011;7076;51.280;12.584;2023-02-15T05:06:30;10.90;;;7.17;;
14001;SDS011;7076;51.280;12.584;2023-02-15T05:11:34;10.87;;;7.70;;
14001;SDS011;7076;51.280;12.584;2023-02-15T05:16:37;10.27;;;6.80;;
14001;SDS011;7076;51.280;12.584;2023-02-15T05:21:40;12.37;;;7.50;;
14001;SDS011;7076;51.280;12.584;2023-02-15T05:26:44;12.07;;;7.37;;
14001;SDS011;7076;51.280;12.584;2023-02-15T05:32:01;9.80;;;7.03;;
14001;SDS011;7076;51.280;12.584;2023-02-15T05:37:05;12.17;;;7.03;;
14001;SDS011;7076;51.280;12.584;2023-02-15T05:42:10;10.87;;;6.77;;
14001;SDS011;7076;51.280;12.584;2023-02-15T05:47:13;11.17;;;7.07;;
14001;SDS011;7076;51.280;12.584;2023-02-15T05:52:15;13.30;;;7.40;;
14001;SDS011;7076;51.280;12.584;2023-02-15T05:57:19;16.00;;;8.20;;
14001;SDS011;7076;51.280;12.584;2023-02-15T06:02:22;11.97;;;7.23;;
14001;SDS011;7076;51.280;12.584;2023-02-15T06:07:25;11.40;;;7.07;;
14001;SDS011;7076;51.280;12.584;2023-02-15T06:12:29;11.13;;;6.93;;
14001;SDS011;7076;51.280;12.584;2023-02-15T06:17:32;10.10;;;6.53;;
14001;SDS011;7076;51.280;12.584;2023-02-15T06:22:35;9.67;;;6.90;;
14001;SDS011;7076;51.280;12.584;2023-02-15T06:27:40;9.13;;;6.00;;
14001;SDS011;7076;51.280;12.584;2023-02-15T06:32:43;11.30;;;7.53;;
14001;SDS011;7076;51.280;12.584;2023-02-15T06:37:46;9.17;;;6.47;;
14001;SDS011;7076;51.280;12.584;2023-02-15T06:42:50;10.80;;;7.23;;
14001;SDS011;7076;51.280;12.584;2023-02-15T06:47:53;9.60;;;6.23;;
14001;SDS011;7076;51.280;12.584;2023-02-15T06:52:56;10.00;;;5.87;;
14001;SDS011;7076;51.280;12.584;2023-02-15T06:58:00;9.23;;;6.17;;
14001;SDS011;7076;51.280;12.584;2023-02-15T07:03:03;10.07;;;6.10;;
14001;SDS011;7076;51.280;12.584;2023-02-15T07:08:06;8.37;;;5.47;;
14001;SDS011;7076;51.280;12.584;2023-02-15T07:13:10;9.23;;;5.50;;
14001;SDS011;7076;51.280;12.584;2023-02-15T07:18:13;9.00;;;5.93;;
14001;SDS011;7076;51.280;12.584;2023-02-15T07:23:16;8.43;;;5.43;;
14001;SDS011;7076;51.280;12.584;2023-02-15T07:28:20;9.77;;;5.13;;
14001;SDS011;7076;51.280;12.584;2023-02-15T07:33:23;7.87;;;5.43;;
14001;SDS011;7076;51.280;12.584;2023-02-15T07:38:29;7.80;;;5.53;;
14001;SDS011;7076;51.280;12.584;2023-02-15T07:43:36;6.13;;;4.80;;
14001;SDS011;7076;51.280;12.584;2023-02-15T07:48:40;7.10;;;4.97;;
14001;SDS011;7076;51.280;12.584;2023-02-15T07:53:44;9.53;;;5.87;;
14001;SDS011;7076;51.280;12.584;2023-02-15T07:58:48;8.57;;;5.80;;
14001;SDS011;7076;51.280;12.584;2023-02-15T08:03:54;6.60;;;4.57;;
14001;SDS011;7076;51.280;12.584;2023-02-15T08:08:57;7.73;;;4.97;;
14001;SDS011;7076;51.280;12.584;2023-02-15T08:14:02;6.40;;;4.40;;
14001;SDS011;7076;51.280;12.584;2023-02-15T08:19:07;8.17;;;4.40;;
14001;SDS011;7076;51.280;12.584;2023-02-15T08:24:11;8.17;;;4.37;;
14001;SDS011;7076;51.280;12.584;2023-02-15T08:29:19;4.33;;;3.47;;
14001;SDS011;7076;51.280;12.584;2023-02-15T08:34:23;6.37;;;4.30;;
14001;SDS011;7076;51.280;12.584;2023-02-15T08:39:26;6.90;;;3.83;;
14001;SDS011;7076;51.280;12.584;2023-02-15T08:44:31;4.87;;;3.83;;
14001;SDS011;7076;51.280;12.584;2023-02-15T08:49:34;5.30;;;3.83;;
14001;SDS011;7076;51.280;12.584;2023-02-15T08:54:36;5.40;;;3.80;;
14001;SDS011;7076;51.280;12.584;2023-02-15T08:59:40;4.83;;;3.60;;
14001;SDS011;7076;51.280;12.584;2023-02-15T09:04:43;5.43;;;3.80;;
14001;SDS011;7076;51.280;12.584;2023-02-15T09:09:46;5.37;;;3.97;;
14001;SDS011;7076;51.280;12.584;2023-02-15T09:14:50;4.33;;;3.50;;
14001;SDS011;7076;51.280;12.584;2023-02-15T09:19:53;4.33;;;3.20;;
14001;SDS011;7076;51.280;12.584;2023-02-15T09:24:55;6.27;;;3.70;;
14001;SDS011;7076;51.280;12.584;2023-02-15T09:29:59;5.70;;;3.80;;
14001;SDS011;7076;51.280;12.584;2023-02-15T09:35:02;5.17;;;3.57;;
14001;SDS011;7076;51.280;12.584;2023-02-15T09:40:06;6.10;;;3.47;;
14001;SDS011;7076;51.280;12.584;2023-02-15T09:50:35;4.43;;;3.57;;
14001;SDS011;7076;51.280;12.584;2023-02-15T09:55:48;4.73;;;3.90;;
14001;SDS011;7076;51.280;12.584;2023-02-15T10:00:57;6.50;;;4.53;;
14001;SDS011;7076;51.280;12.584;2023-02-15T10:06:05;4.37;;;3.40;;
14001;SDS011;7076;51.280;12.584;2023-02-15T10:11:20;6.27;;;3.57;;
14001;SDS011;7076;51.280;12.584;2023-02-15T10:16:45;4.17;;;3.20;;
14001;SDS011;7076;51.280;12.584;2023-02-15T10:21:58;15.10;;;11.17;;
14001;SDS011;7076;51.280;12.584;2023-02-15T10:27:09;3.73;;;3.23;;
14001;SDS011;7076;51.280;12.584;2023-02-15T10:32:19;4.93;;;2.87;;
14001;SDS011;7076;51.280;12.584;2023-02-15T10:37:30;6.63;;;3.00;;
14001;SDS011;7076;51.280;12.584;2023-02-15T10:42:39;4.57;;;3.50;;
14001;SDS011;7076;51.280;12.584;2023-02-15T10:47:55;5.27;;;3.03;;
14001;SDS011;7076;51.280;12.584;2023-02-15T10:53:09;5.23;;;3.20;;
14001;SDS011;7076;51.280;12.584;2023-02-15T10:58:22;4.43;;;2.87;;
14001;SDS011;7076;51.280;12.584;2023-02-15T11:03:36;4.22;;;3.13;;
14001;SDS011;7076;51.280;12.584;2023-02-15T11:08:43;3.40;;;2.80;;
14001;SDS011;7076;51.280;12.584;2023-02-15T11:13:49;3.42;;;2.50;;
14001;SDS011;7076;51.280;12.584;2023-02-15T11:18:55;4.13;;;2.45;;
14001;SDS011;7076;51.280;12.584;2023-02-15T11:24:00;8.73;;;3.47;;
14001;SDS011;7076;51.280;12.584;2023-02-15T11:29:06;3.83;;;2.22;;
14001;SDS011;7076;51.280;12.584;2023-02-15T11:34:13;3.67;;;2.63;;
14001;SDS011;7076;51.280;12.584;2023-02-15T11:39:21;5.68;;;3.13;;
14001;SDS011;7076;51.280;12.584;2023-02-15T11:44:25;4.68;;;3.60;;
14001;SDS011;7076;51.280;12.584;2023-02-15T11:49:32;3.88;;;2.58;;
14001;SDS011;7076;51.280;12.584;2023-02-15T11:54:36;4.97;;;2.72;;
14001;SDS011;7076;51.280;12.584;2023-02-15T11:59:43;4.03;;;3.00;;
14001;SDS011;7076;51.280;12.584;2023-02-15T12:04:51;4.00;;;2.75;;
14001;SDS011;7076;51.280;12.584;2023-02-15T12:09:56;4.50;;;2.65;;
14001;SDS011;7076;51.280;12.584;2023-02-15T12:15:06;3.80;;;2.38;;
14001;SDS011;7076;51.280;12.584;2023-02-15T12:20:21;6.05;;;3.08;;
14001;SDS011;7076;51.280;12.584;2023-02-15T12:25:28;4.53;;;2.60;;
14001;SDS011;7076;51.280;12.584;2023-02-15T12:30:32;2.65;;;2.15;;
14001;SDS011;7076;51.280;12.584;2023-02-15T12:35:38;2.72;;;2.30;;
14001;SDS011;7076;51.280;12.584;2023-02-15T12:40:41;2.55;;;2.35;;
14001;SDS011;7076;51.280;12.584;2023-02-15T12:46:22;2.92;;;2.28;;
14001;SDS011;7076;51.280;12.584;2023-02-15T12:51:28;3.45;;;2.35;;
14001;SDS011;7076;51.280;12.584;2023-02-15T12:56:30;5.15;;;2.60;;
14001;SDS011;7076;51.280;12.584;2023-02-15T13:01:33;2.63;;;2.10;;
14001;SDS011;7076;51.280;12.584;2023-02-15T13:06:37;4.20;;;2.55;;
14001;SDS011;7076;51.280;12.584;2023-02-15T13:11:49;4.22;;;3.03;;
14001;SDS011;7076;51.280;12.584;2023-02-15T13:16:52;3.78;;;2.90;;
14001;SDS011;7076;51.280;12.584;2023-02-15T13:21:57;3.55;;;2.40;;
14001;SDS011;7076;51.280;12.584;2023-02-15T13:27:00;3.85;;;2.60;;
14001;SDS011;7076;51.280;12.584;2023-02-15T13:32:21;4.20;;;2.55;;
14001;SDS011;7076;51.280;12.584;2023-02-15T13:37:37;6.20;;;3.20;;
14001;SDS011;7076;51.280;12.584;2023-02-15T13:42:49;3.42;;;2.85;;
14001;SDS011;7076;51.280;12.584;2023-02-15T13:47:57;4.60;;;2.70;;
14001;SDS011;7076;51.280;12.584;2023-02-15T13:53:16;3.03;;;2.15;;
14001;SDS011;7076;51.280;12.584;2023-02-15T13:58:26;4.25;;;2.30;;
14001;SDS011;7076;51.280;12.584;2023-02-15T14:03:49;5.28;;;2.20;;
14001;SDS011;7076;51.280;12.584;2023-02-15T14:09:11;3.58;;;2.20;;
14001;SDS011;7076;51.280;12.584;2023-02-15T14:14:29;4.30;;;2.42;;
14001;SDS011;7076;51.280;12.584;2023-02-15T14:19:42;2.78;;;2.22;;
14001;SDS011;7076;51.280;12.584;2023-02-15T14:24:55;4.38;;;2.75;;
14001;SDS011;7076;51.280;12.584;2023-02-15T14:30:10;3.03;;;2.50;;
14001;SDS011;7076;51.280;12.584;2023-02-15T14:35:17;2.47;;;2.03;;
14001;SDS011;7076;51.280;12.584;2023-02-15T14:40:26;3.08;;;2.30;;
14001;SDS011;7076;51.280;12.584;2023-02-15T14:45:53;3.03;;;2.28;;
14001;SDS011;7076;51.280;12.584;2023-02-15T14:50:57;2.10;;;1.90;;
14001;SDS011;7076;51.280;12.584;2023-02-15T14:56:12;2.55;;;2.10;;
14001;SDS011;7076;51.280;12.584;2023-02-15T15:01:24;4.32;;;2.33;;
14001;SDS011;7076;51.280;12.584;2023-02-15T15:06:28;2.92;;;2.15;;
14001;SDS011;7076;51.280;12.584;2023-02-15T15:11:46;4.00;;;2.92;;
14001;SDS011;7076;51.280;12.584;2023-02-15T15:16:50;4.00;;;2.75;;
14001;SDS011;7076;51.280;12.584;2023-02-15T15:21:54;4.55;;;2.67;;
14001;SDS011;7076;51.280;12.584;2023-02-15T15:32:35;4.70;;;2.53;;
14001;SDS011;7076;51.280;12.584;2023-02-15T15:48:48;3.63;;;2.50;;
14001;SDS011;7076;51.280;12.584;2023-02-15T15:53:51;3.85;;;2.60;;
14001;SDS011;7076;51.280;12.584;2023-02-15T15:58:56;6.38;;;2.47;;
14001;SDS011;7076;51.280;12.584;2023-02-15T16:04:01;3.80;;;2.50;;
14001;SDS011;7076;51.280;12.584;2023-02-15T16:09:11;4.30;;;1.92;;
14001;SDS011;7076;51.280;12.584;2023-02-15T16:14:16;3.03;;;2.50;;
14001;SDS011;7076;51.280;12.584;2023-02-15T16:19:23;3.83;;;2.10;;
14001;SDS011;7076;51.280;12.584;2023-02-15T16:24:33;5.63;;;2.80;;
14001;SDS011;7076;51.280;12.584;2023-02-15T16:29:40;4.55;;;3.50;;
14001;SDS011;7076;51.280;12.584;2023-02-15T16:34:51;4.82;;;2.88;;
14001;SDS011;7076;51.280;12.584;2023-02-15T16:39:55;8.35;;;3.17;;
14001;SDS011;7076;51.280;12.584;2023-02-15T16:45:00;4.55;;;2.60;;
14001;SDS011;7076;51.280;12.584;2023-02-15T16:50:07;2.97;;;1.98;;
14001;SDS011;7076;51.280;12.584;2023-02-15T16:55:20;4.53;;;3.10;;
14001;SDS011;7076;51.280;12.584;2023-02-15T17:00:24;3.30;;;2.20;;
14001;SDS011;7076;51.280;12.584;2023-02-15T17:05:32;2.55;;;2.13;;
14001;SDS011;7076;51.280;12.584;2023-02-15T17:10:35;3.00;;;2.08;;
14001;SDS011;7076;51.280;12.584;2023-02-15T17:15:41;2.60;;;1.77;;
14001;SDS011;7076;51.280;12.584;2023-02-15T17:20:46;6.72;;;2.03;;
14001;SDS011;7076;51.280;12.584;2023-02-15T17:25:50;2.60;;;2.30;;
14001;SDS011;7076;51.280;12.584;2023-02-15T17:30:54;2.22;;;2.03;;
14001;SDS011;7076;51.280;12.584;2023-02-15T17:36:09;3.97;;;2.22;;
14001;SDS011;7076;51.280;12.584;2023-02-15T17:41:14;4.43;;;2.80;;
14001;SDS011;7076;51.280;12.584;2023-02-15T17:46:17;4.38;;;2.83;;
14001;SDS011;7076;51.280;12.584;2023-02-15T17:51:25;4.32;;;2.80;;
14001;SDS011;7076;51.280;12.584;2023-02-15T17:56:28;4.28;;;2.90;;
14001;SDS011;7076;51.280;12.584;2023-02-15T18:01:31;4.47;;;3.20;;
14001;SDS011;7076;51.280;12.584;2023-02-15T18:06:52;5.40;;;3.97;;
14001;SDS011;7076;51.280;12.584;2023-02-15T18:12:17;3.83;;;3.25;;
14001;SDS011;7076;51.280;12.584;2023-02-15T18:17:23;4.60;;;3.40;;
14001;SDS011;7076;51.280;12.584;2023-02-15T18:22:30;4.53;;;3.40;;
14001;SDS011;7076;51.280;12.584;2023-02-15T18:27:33;6.22;;;3.45;;
14001;SDS011;7076;51.280;12.584;2023-02-15T18:32:36;4.95;;;3.72;;
14001;SDS011;7076;51.280;12.584;2023-02-15T18:37:41;4.07;;;3.47;;
14001;SDS011;7076;51.280;12.584;2023-02-15T18:42:45;4.55;;;3.55;;
14001;SDS011;7076;51.280;12.584;2023-02-15T18:47:48;4.28;;;3.35;;
14001;SDS011;7076;51.280;12.584;2023-02-15T18:52:52;6.40;;;4.18;;
14001;SDS011;7076;51.280;12.584;2023-02-15T18:57:55;5.82;;;4.22;;
14001;SDS011;7076;51.280;12.584;2023-02-15T19:02:58;6.75;;;3.80;;
14001;SDS011;7076;51.280;12.584;2023-02-15T19:08:03;5.97;;;3.97;;
14001;SDS011;7076;51.280;12.584;2023-02-15T19:13:08;5.45;;;4.10;;
14001;SDS011;7076;51.280;12.584;2023-02-15T19:18:11;6.00;;;4.18;;
14001;SDS011;7076;51.280;12.584;2023-02-15T19:23:16;8.70;;;4.88;;
14001;SDS011;7076;51.280;12.584;2023-02-15T19:28:23;5.63;;;4.40;;
14001;SDS011;7076;51.280;12.584;2023-02-15T19:33:29;9.10;;;4.10;;
14001;SDS011;7076;51.280;12.584;2023-02-15T19:38:33;4.95;;;3.47;;
14001;SDS011;7076;51.280;12.584;2023-02-15T19:43:37;6.35;;;3.85;;
14001;SDS011;7076;51.280;12.584;2023-02-15T19:48:40;6.47;;;4.05;;
14001;SDS011;7076;51.280;12.584;2023-02-15T19:53:44;5.70;;;4.47;;
14001;SDS011;7076;51.280;12.584;2023-02-15T19:58:47;7.32;;;4.65;;
14001;SDS011;7076;51.280;12.584;2023-02-15T20:03:51;8.63;;;4.60;;
14001;SDS011;7076;51.280;12.584;2023-02-15T20:08:56;6.38;;;4.18;;
14001;SDS011;7076;51.280;12.584;2023-02-15T20:13:59;4.82;;;3.85;;
14001;SDS011;7076;51.280;12.584;2023-02-15T20:19:01;7.38;;;4.70;;
14001;SDS011;7076;51.280;12.584;2023-02-15T20:24:06;6.35;;;4.75;;
14001;SDS011;7076;51.280;12.584;2023-02-15T20:29:10;6.80;;;5.18;;
14001;SDS011;7076;51.280;12.584;2023-02-15T20:34:15;7.50;;;5.20;;
14001;SDS011;7076;51.280;12.584;2023-02-15T20:39:19;7.50;;;5.22;;
14001;SDS011;7076;51.280;12.584;2023-02-15T20:44:23;8.32;;;6.05;;
14001;SDS011;7076;51.280;12.584;2023-02-15T20:49:27;9.68;;;6.05;;
14001;SDS011;7076;51.280;12.584;2023-02-15T20:54:32;7.15;;;5.63;;
14001;SDS011;7076;51.280;12.584;2023-02-15T20:59:36;9.68;;;6.65;;
14001;SDS011;7076;51.280;12.584;2023-02-15T21:04:39;9.25;;;6.68;;
14001;SDS011;7076;51.280;12.584;2023-02-15T21:09:43;9.25;;;6.80;;
14001;SDS011;7076;51.280;12.584;2023-02-15T21:14:47;11.10;;;6.60;;
14001;SDS011;7076;51.280;12.584;2023-02-15T21:19:50;8.82;;;6.55;;
14001;SDS011;7076;51.280;12.584;2023-02-15T21:24:54;8.88;;;6.32;;
14001;SDS011;7076;51.280;12.584;2023-02-15T21:29:57;10.13;;;6.82;;
14001;SDS011;7076;51.280;12.584;2023-02-15T21:35:01;9.77;;;6.45;;
14001;SDS011;7076;51.280;12.584;2023-02-15T21:40:08;11.02;;;7.55;;
14001;SDS011;7076;51.280;12.584;2023-02-15T21:45:19;10.65;;;6.82;;
14001;SDS011;7076;51.280;12.584;2023-02-15T21:50:39;8.82;;;6.47;;
14001;SDS011;7076;51.280;12.584;2023-02-15T21:56:02;10.27;;;6.68;;
14001;SDS011;7076;51.280;12.584;2023-02-15T22:01:05;10.43;;;6.93;;
14001;SDS011;7076;51.280;12.584;2023-02-15T22:06:08;9.63;;;6.85;;
14001;SDS011;7076;51.280;12.584;2023-02-15T22:11:16;11.32;;;6.93;;
14001;SDS011;7076;51.280;12.584;2023-02-15T22:16:21;10.30;;;7.32;;
14001;SDS011;7076;51.280;12.584;2023-02-15T22:21:24;9.05;;;6.53;;
14001;SDS011;7076;51.280;12.584;2023-02-15T22:26:28;9.35;;;6.60;;
14001;SDS011;7076;51.280;12.584;2023-02-15T22:31:31;10.73;;;7.10;;
14001;SDS011;7076;51.280;12.584;2023-02-15T22:36:34;12.45;;;7.30;;
14001;SDS011;7076;51.280;12.584;2023-02-15T22:41:38;10.02;;;6.90;;
14001;SDS011;7076;51.280;12.584;2023-02-15T22:46:41;9.98;;;7.03;;
14001;SDS011;7076;51.280;12.584;2023-02-15T22:51:44;11.00;;;7.18;;
14001;SDS011;7076;51.280;12.584;2023-02-15T22:56:49;11.23;;;7.25;;
14001;SDS011;7076;51.280;12.584;2023-02-15T23:01:53;11.15;;;7.32;;
14001;SDS011;7076;51.280;12.584;2023-02-15T23:06:56;10.83;;;6.93;;
14001;SDS011;7076;51.280;12.584;2023-02-15T23:12:02;9.52;;;6.72;;
14001;SDS011;7076;51.280;12.584;2023-02-15T23:17:15;13.90;;;7.18;;
14001;SDS011;7076;51.280;12.584;2023-02-15T23:22:18;11.77;;;7.07;;
14001;SDS011;7076;51.280;12.584;2023-02-15T23:27:22;9.65;;;6.75;;
14001;SDS011;7076;51.280;12.584;2023-02-15T23:32:42;10.93;;;6.43;;
14001;SDS011;7076;51.280;12.584;2023-02-15T23:37:45;10.98;;;7.43;;
14001;SDS011;7076;51.280;12.584;2023-02-15T23:42:49;8.83;;;6.97;;
14001;SDS011;7076;51.280;12.584;2023-02-15T23:47:52;13.20;;;7.23;;
14001;SDS011;7076;51.280;12.584;2023-02-15T23:53:12;10.07;;;6.47;;
14001;SDS011;7076;51.280;12.584;2023-02-15T23:58:17;10.77;;;7.00;;
